createdAt,value
2017-09-19T00:02:40.764Z,0
2017-09-19T00:12:40.711Z,0
2017-09-19T00:22:40.781Z,0
2017-09-19T00:32:40.673Z,0
2017-09-19T00:42:40.646Z,0
2017-09-19T00:52:41.950Z,0
2017-09-19T01:02:40.673Z,0
2017-09-19T01:12:40.810Z,0
2017-09-19T01:22:40.698Z,0
2017-09-19T01:32:40.707Z,0
2017-09-19T01:42:40.835Z,0
2017-09-19T01:52:40.673Z,0
2017-09-19T02:02:40.693Z,0
2017-09-19T02:12:40.658Z,0
2017-09-19T02:22:40.729Z,0
2017-09-19T02:32:40.644Z,0
2017-09-19T02:42:40.697Z,0
2017-09-19T02:52:40.697Z,0
2017-09-19T03:02:40.739Z,0
2017-09-19T03:12:40.678Z,0
2017-09-19T03:22:40.669Z,0
2017-09-19T03:32:40.661Z,0
2017-09-19T03:42:40.710Z,0
2017-09-19T03:52:53.516Z,0
2017-09-19T04:02:40.691Z,0
2017-09-19T04:12:41.321Z,0
2017-09-19T04:22:41.008Z,0
2017-09-19T04:32:41.416Z,0
2017-09-19T04:42:40.688Z,0
2017-09-19T04:52:40.659Z,0
2017-09-19T05:02:40.705Z,0
2017-09-19T05:12:41.762Z,0
2017-09-19T05:22:40.723Z,0
2017-09-19T05:32:40.663Z,5
2017-09-19T05:42:40.681Z,10
2017-09-19T05:52:40.640Z,10
2017-09-19T06:02:40.765Z,15
2017-09-19T06:12:40.673Z,10
2017-09-19T06:22:40.665Z,25
2017-09-19T06:32:40.743Z,30
2017-09-19T06:42:40.673Z,55
2017-09-19T06:52:40.628Z,70
2017-09-19T07:02:40.714Z,50
2017-09-19T07:12:40.649Z,55
2017-09-19T07:22:40.749Z,55
2017-09-19T07:32:40.639Z,55
2017-09-19T07:42:40.751Z,85
2017-09-19T07:52:40.658Z,120
2017-09-19T08:02:40.700Z,160
2017-09-19T08:12:40.940Z,190
2017-09-19T08:22:40.678Z,195
2017-09-19T08:32:40.840Z,165
2017-09-19T08:42:40.728Z,180
2017-09-19T08:52:43.746Z,225
2017-09-19T09:02:42.435Z,180
2017-09-19T09:12:40.810Z,190
2017-09-19T09:22:40.695Z,175
2017-09-19T09:32:41.286Z,185
2017-09-19T09:42:40.850Z,220
2017-09-19T09:52:41.063Z,190
2017-09-19T10:02:41.036Z,165
2017-09-19T10:12:40.673Z,130
2017-09-19T10:22:40.665Z,215
2017-09-19T10:32:40.781Z,230
2017-09-19T10:42:40.763Z,195
2017-09-19T10:52:40.758Z,205
2017-09-19T11:02:40.704Z,160
2017-09-19T11:12:40.684Z,160
2017-09-19T11:22:40.924Z,185
2017-09-19T11:32:40.771Z,180
2017-09-19T11:42:40.838Z,140
2017-09-19T11:52:40.828Z,175
2017-09-19T12:02:40.754Z,135
2017-09-19T12:12:40.999Z,190
2017-09-19T12:22:41.320Z,200
2017-09-19T12:32:40.756Z,195
2017-09-19T12:42:40.803Z,160
2017-09-19T12:52:40.741Z,140
2017-09-19T13:02:40.802Z,195
2017-09-19T13:12:40.820Z,180
2017-09-19T13:22:40.801Z,200
2017-09-19T13:32:40.937Z,210
2017-09-19T13:42:40.824Z,155
2017-09-19T13:52:40.866Z,135
2017-09-19T14:02:40.797Z,130
2017-09-19T14:12:41.851Z,140
2017-09-19T14:22:51.502Z,130
2017-09-19T14:32:40.727Z,130
2017-09-19T14:42:40.801Z,130
2017-09-19T14:52:40.731Z,120
2017-09-19T15:02:40.908Z,115
2017-09-19T15:12:40.806Z,105
2017-09-19T15:22:40.798Z,90
2017-09-19T15:32:40.804Z,70
2017-09-19T15:42:40.885Z,65
2017-09-19T15:52:40.726Z,75
2017-09-19T16:02:40.747Z,60
2017-09-19T16:12:40.752Z,60
2017-09-19T16:22:41.068Z,50
2017-09-19T16:32:41.211Z,45
2017-09-19T16:42:40.819Z,40
2017-09-19T16:52:40.865Z,25
2017-09-19T17:02:40.774Z,20
2017-09-19T17:12:40.885Z,15
2017-09-19T17:22:40.726Z,5
2017-09-19T17:32:40.752Z,0
2017-09-19T17:42:40.943Z,0
2017-09-19T17:52:40.739Z,0
2017-09-19T18:02:40.896Z,0
2017-09-19T18:12:40.764Z,0
2017-09-19T18:22:40.742Z,0
2017-09-19T18:32:41.487Z,0
2017-09-19T18:42:40.823Z,0
2017-09-19T18:52:40.891Z,0
2017-09-19T19:02:40.710Z,0
2017-09-19T19:12:40.846Z,0
2017-09-19T19:22:40.845Z,0
2017-09-19T19:32:41.532Z,0
2017-09-19T19:42:40.732Z,0
2017-09-19T19:52:40.693Z,0
2017-09-19T20:02:44.573Z,0
2017-09-19T20:12:40.844Z,0
2017-09-19T20:22:41.253Z,0
2017-09-19T20:32:48.012Z,0
2017-09-19T20:42:41.168Z,0
2017-09-19T20:52:40.830Z,0
2017-09-19T21:02:40.793Z,0
2017-09-19T21:12:40.789Z,0
2017-09-19T21:22:41.090Z,0
2017-09-19T21:32:41.023Z,0
2017-09-19T21:42:40.734Z,0
2017-09-19T21:52:40.754Z,0
2017-09-19T22:03:01.105Z,0
2017-09-19T22:12:40.759Z,0
2017-09-19T22:22:40.820Z,0
2017-09-19T22:32:40.758Z,0
2017-09-19T22:42:40.703Z,0
2017-09-19T22:52:40.824Z,0
2017-09-19T23:02:40.724Z,0
2017-09-19T23:12:40.737Z,0
2017-09-19T23:22:40.705Z,0
2017-09-19T23:32:40.697Z,0
2017-09-19T23:42:40.841Z,0
2017-09-19T23:52:40.756Z,0
